Aeroporto :
LOGIN :

Iscrizione | Disclaimer

   EN    FR    IT 

 










Sommario :    VFR   VFR Marginale   IFR   IFR Intensivo   IFR Molto Intensivo
Visibilità : 
Base nubi : 
>= 8 km
>= 3000ft
5 / 8 km
1000 / 3000 ft
1500m / 5 km
500 / 1000 ft
800 / 1500m
200 / 500 ft
< 800m
< 200 ft
Simboli :   Temporali  Nebbia  Neve Forte  Precipitazioni Forti  Vento > 20 kt
SIGMETs :   Varie  Temporali  Ghiacco  Turbolenza  Onda orograficha  Ceneri Vulcaniche






- Altitudine del aeroporto : 375 ft
- Codice IATA : MST


EHBK - Maastricht Aachen

ULTIMO METAR :
  • 301655Z AUTO 24014G25KT 190V290 9999 BKN043/// BKN048/// 21/14 Q1006 TEMPO 24017G27KT 7000 -SHRA SCT025CB

METARs OBSOLETI :
  • 301625Z AUTO 22015KT 190V250 9999 NSC 22/14 Q1006 TEMPO 24017G27KT 7000 -SHRA SCT025CB
  • 301555Z AUTO 21017KT 170V240 9999 NSC 22/13 Q1006 TEMPO 24017G27KT 7000 -SHRA SCT025CB
  • 301525Z AUTO 22018KT 170V250 9999 NSC 23/13 Q1006 NOSIG
  • 301455Z AUTO 23018KT 190V260 9999 NSC 23/13 Q1006 NOSIG

TAF TAF EHBK
Valido dal 30 a 12 ore il 31 a 18 ore UTC


301118Z 3012/3118 21012KT 9999 BKN040
PROB30
TEMPO 3013/3018 7000 -SHRA FEW030TCU
BECMG 3015/3018 24015KT
PROB30
TEMPO 3112/3118 4500 SHRA SCT020CB



MetMap, La meteo Aeronautica in un colpo d'occhio ! - Copyright ORBIFLY Dicembre 2007 - Disclaimer

ORBIFLY MET'MAP TEAM :

Programmazione e sviluppo : Alexandra Zaïnal
Concezione : Baudouin d'Aumeries
Aiuto per la programmazione : Marc-Olivier Méhu
Supporto tecnico e logistico : Manuel Goepfert
Aiuto per la traduzione : Arnaldo La Scala

Contatto : metmap@orbifly.com




FONTI E CREDITI :

   NOAA